Time;durP1;ratioP1;P1;durP2;ratioP2;P2;SDS_P1;SDS_P2;PMS_P1;PMS_P2;Temp;Humidity;BMP_temperature;BMP_pressure;BME280_temperature;BME280_humidity;BME280_pressure;Samples;Min_cycle;Max_cycle;Signal;HPM_P1;HPM_P2
2023/06/12 00:01:47;;;;;;;7.10;6.50;;;19.80;1.00;;;;;;4962476;28;20570;-77
2023/06/12 00:04:14;;;;;;;7.70;7.00;;;19.70;1.00;;;;;;4967882;28;20460;-76
2023/06/12 00:06:41;;;;;;;7.83;7.07;;;19.70;1.00;;;;;;4961773;28;20546;-76
2023/06/12 00:09:10;;;;;;;8.10;6.43;;;19.60;1.00;;;;;;4965858;28;20461;-76
2023/06/12 00:11:40;;;;;;;7.60;6.80;;;19.60;1.00;;;;;;4967152;28;20444;-77
2023/06/12 00:14:09;;;;;;;7.30;6.70;;;19.60;1.00;;;;;;4965806;28;20496;-78
2023/06/12 00:16:39;;;;;;;6.97;6.33;;;19.50;1.00;;;;;;4964365;28;20684;-78
2023/06/12 00:19:06;;;;;;;6.63;6.00;;;19.40;1.00;;;;;;4965985;28;20463;-77
2023/06/12 00:21:33;;;;;;;6.77;6.17;;;19.30;1.00;;;;;;4965724;28;20912;-77
2023/06/12 00:24:08;;;;;;;7.47;6.77;;;19.30;1.00;;;;;;4967610;28;20544;-76
2023/06/12 00:26:36;;;;;;;6.53;5.57;;;19.30;1.00;;;;;;4964318;28;20521;-75
2023/06/12 00:29:03;;;;;;;7.93;6.50;;;19.20;1.00;;;;;;4966520;28;20568;-76
2023/06/12 00:31:32;;;;;;;6.87;6.27;;;19.10;1.00;;;;;;4965624;28;20534;-76
2023/06/12 00:34:30;;;;;;;12.80;6.50;;;19.10;1.00;;;;;;5023757;23;20437;-75
2023/06/12 00:36:57;;;;;;;8.03;5.73;;;19.00;1.00;;;;;;4947625;28;20452;-75
2023/06/12 00:39:24;;;;;;;6.53;5.93;;;19.00;1.00;;;;;;4952648;28;20967;-75
2023/06/12 00:41:52;;;;;;;6.53;6.03;;;19.00;1.00;;;;;;4954473;28;20479;-75
2023/06/12 00:44:25;;;;;;;6.87;6.20;;;19.00;1.00;;;;;;4956051;28;20435;-74
2023/06/12 00:46:53;;;;;;;7.57;6.27;;;19.00;1.00;;;;;;4955722;28;20463;-76
2023/06/12 00:49:20;;;;;;;6.10;5.50;;;19.00;1.00;;;;;;4949715;28;20462;-74
2023/06/12 00:51:47;;;;;;;6.73;6.13;;;18.90;1.00;;;;;;4953891;28;20477;-74
2023/06/12 00:54:15;;;;;;;6.93;6.37;;;18.90;1.00;;;;;;4956263;28;20471;-76
2023/06/12 00:56:42;;;;;;;6.23;5.77;;;18.80;1.00;;;;;;4949476;28;20511;-76
2023/06/12 00:59:10;;;;;;;5.90;5.30;;;18.80;1.00;;;;;;4947969;28;20514;-75
2023/06/12 01:04:12;;;;;;;10.60;6.17;;;18.70;1.00;;;;;;4966333;28;20475;-75
2023/06/12 01:06:47;;;;;;;6.33;5.73;;;18.70;1.00;;;;;;4968909;28;20469;-74
2023/06/12 01:09:25;;;;;;;6.77;6.23;;;18.70;1.00;;;;;;4972102;28;20473;-74
2023/06/12 01:11:55;;;;;;;6.03;5.53;;;18.60;1.00;;;;;;4969129;28;20967;-74
2023/06/12 01:14:24;;;;;;;6.20;5.10;;;18.60;1.00;;;;;;4968164;28;20467;-74
2023/06/12 01:16:52;;;;;;;5.57;5.07;;;18.60;1.00;;;;;;4968850;28;20577;-75
2023/06/12 01:19:20;;;;;;;6.13;5.63;;;18.60;1.00;;;;;;4969340;28;20480;-75
2023/06/12 01:21:52;;;;;;;6.27;5.73;;;18.50;1.00;;;;;;4967433;28;20523;-74
2023/06/12 01:24:37;;;;;;;5.53;4.97;;;18.50;1.00;;;;;;4973838;28;20475;-73
2023/06/12 01:27:29;;;;;;;6.13;5.57;;;18.40;1.00;;;;;;4973874;28;21005;-74
2023/06/12 01:30:34;;;;;;;6.30;5.80;;;18.40;1.00;;;;;;4969678;28;20633;-75
2023/06/12 01:33:07;;;;;;;7.57;5.80;;;18.40;1.00;;;;;;4967204;28;20580;-76
2023/06/12 01:35:40;;;;;;;5.27;4.87;;;18.40;1.00;;;;;;4967352;28;20622;-76
2023/06/12 01:38:10;;;;;;;6.10;5.50;;;18.30;1.00;;;;;;4968081;28;20545;-76
2023/06/12 01:40:39;;;;;;;7.97;4.97;;;18.30;1.00;;;;;;4972975;28;20466;-75
2023/06/12 01:43:06;;;;;;;5.60;5.10;;;18.30;1.00;;;;;;4966168;28;20556;-77
2023/06/12 01:45:34;;;;;;;6.40;5.30;;;18.30;1.00;;;;;;4969424;28;20830;-74
2023/06/12 01:48:03;;;;;;;6.57;6.00;;;18.20;1.00;;;;;;4967749;28;20934;-74
2023/06/12 01:50:30;;;;;;;5.73;5.23;;;18.20;1.00;;;;;;4970630;28;20466;-74
2023/06/12 01:52:57;;;;;;;5.60;5.10;;;18.20;1.00;;;;;;4970192;28;20481;-75
2023/06/12 01:55:24;;;;;;;5.47;4.90;;;18.10;1.00;;;;;;4971064;28;20521;-75
2023/06/12 01:57:51;;;;;;;5.73;5.23;;;18.10;1.00;;;;;;4972701;28;20456;-74
2023/06/12 02:00:19;;;;;;;9.67;5.10;;;18.10;1.00;;;;;;4968273;28;20468;-75
2023/06/12 02:02:46;;;;;;;6.13;5.63;;;18.00;1.00;;;;;;4966985;28;20501;-74
2023/06/12 02:05:15;;;;;;;6.10;5.60;;;18.00;1.00;;;;;;4970145;28;20471;-75
2023/06/12 02:07:42;;;;;;;7.43;5.70;;;18.00;1.00;;;;;;4966639;28;20485;-74
2023/06/12 02:10:09;;;;;;;6.77;5.90;;;17.90;1.00;;;;;;4972112;28;20467;-75
2023/06/12 02:12:36;;;;;;;5.90;5.30;;;17.90;1.00;;;;;;4970493;28;20561;-74
2023/06/12 02:15:04;;;;;;;5.63;4.87;;;17.80;1.00;;;;;;4969308;28;20999;-74
2023/06/12 02:17:32;;;;;;;7.37;6.07;;;17.80;1.00;;;;;;4968912;28;20590;-74
2023/06/12 02:20:01;;;;;;;6.30;5.70;;;17.70;1.00;;;;;;4968309;28;20465;-74
2023/06/12 02:22:29;;;;;;;6.00;5.50;;;17.70;1.00;;;;;;4968037;28;20508;-74
2023/06/12 02:24:56;;;;;;;6.53;5.97;;;17.60;1.00;;;;;;4972024;28;20461;-75
2023/06/12 02:27:23;;;;;;;6.37;5.77;;;17.50;1.00;;;;;;4969824;28;20543;-74
2023/06/12 02:29:50;;;;;;;6.00;5.50;;;17.50;1.00;;;;;;4970685;28;20480;-73
2023/06/12 02:32:17;;;;;;;7.27;5.50;;;17.40;1.00;;;;;;4970918;28;20599;-74
2023/06/12 02:34:44;;;;;;;6.60;6.10;;;17.30;1.00;;;;;;4967853;28;20491;-75
2023/06/12 02:37:11;;;;;;;7.57;6.77;;;17.30;1.00;;;;;;4967810;28;23221;-75
2023/06/12 02:39:40;;;;;;;5.80;5.30;;;17.30;1.00;;;;;;4972430;28;20491;-74
2023/06/12 02:42:08;;;;;;;7.90;7.10;;;17.30;1.00;;;;;;4968557;28;20480;-74
2023/06/12 02:44:35;;;;;;;8.50;6.10;;;17.30;1.00;;;;;;4967963;28;20465;-75
2023/06/12 02:47:02;;;;;;;6.80;6.20;;;17.20;1.00;;;;;;4966280;28;20882;-74
2023/06/12 02:49:30;;;;;;;6.53;6.03;;;17.20;1.00;;;;;;4968702;28;20504;-74
2023/06/12 02:51:58;;;;;;;7.67;6.17;;;17.20;1.00;;;;;;4966997;28;20499;-74
2023/06/12 02:54:27;;;;;;;5.63;5.13;;;17.20;1.00;;;;;;4965907;28;20523;-75
2023/06/12 02:56:55;;;;;;;7.87;7.17;;;17.20;1.00;;;;;;4972588;28;20967;-74
2023/06/12 02:59:23;;;;;;;6.80;6.23;;;17.10;1.00;;;;;;4970564;28;20965;-75
2023/06/12 03:01:50;;;;;;;6.80;5.73;;;17.10;1.00;;;;;;4971781;28;20483;-74
2023/06/12 03:04:20;;;;;;;6.57;6.07;;;17.10;1.00;;;;;;4971636;28;20467;-74
2023/06/12 03:06:47;;;;;;;7.40;6.80;;;17.10;1.00;;;;;;4968675;28;20535;-75
2023/06/12 03:09:15;;;;;;;7.30;6.60;;;17.10;1.00;;;;;;4972780;28;20548;-74
2023/06/12 03:11:43;;;;;;;7.10;6.40;;;17.10;1.00;;;;;;4966123;28;20507;-75
2023/06/12 03:14:13;;;;;;;6.80;5.70;;;17.10;1.00;;;;;;4968687;28;20558;-75
2023/06/12 03:16:40;;;;;;;9.83;6.00;;;17.00;1.00;;;;;;4967615;28;20480;-76
2023/06/12 03:19:07;;;;;;;7.47;5.70;;;16.90;1.00;;;;;;4968686;28;20543;-75
2023/06/12 03:21:35;;;;;;;6.20;5.60;;;17.00;1.00;;;;;;4966445;28;20468;-74
2023/06/12 03:24:02;;;;;;;7.47;6.23;;;16.90;1.00;;;;;;4965352;28;20912;-75
2023/06/12 03:26:31;;;;;;;6.93;6.33;;;16.90;1.00;;;;;;4965826;28;20635;-73
2023/06/12 03:28:58;;;;;;;7.90;6.17;;;16.90;1.00;;;;;;4964222;28;20462;-75
2023/06/12 03:31:27;;;;;;;6.80;5.97;;;16.90;1.00;;;;;;4966454;28;20475;-76
2023/06/12 03:33:54;;;;;;;6.80;6.23;;;16.90;1.00;;;;;;4964149;28;20472;-74
2023/06/12 03:36:23;;;;;;;15.07;8.03;;;16.90;1.00;;;;;;4964271;28;20496;-75
2023/06/12 03:38:50;;;;;;;7.40;6.77;;;16.90;1.00;;;;;;4964039;28;20464;-74
2023/06/12 03:41:17;;;;;;;9.40;5.63;;;16.90;1.00;;;;;;4968299;28;20519;-75
2023/06/12 03:43:44;;;;;;;12.57;6.67;;;16.90;1.00;;;;;;4966682;28;20561;-74
2023/06/12 03:46:11;;;;;;;6.80;6.10;;;16.90;1.00;;;;;;4967411;28;20528;-75
2023/06/12 03:48:40;;;;;;;40.67;11.60;;;16.90;1.00;;;;;;4966301;28;20555;-74
2023/06/12 03:51:07;;;;;;;9.43;6.60;;;16.90;1.00;;;;;;4965833;28;20547;-75
2023/06/12 03:53:34;;;;;;;7.60;5.73;;;16.90;1.00;;;;;;4973340;28;20483;-75
2023/06/12 03:56:01;;;;;;;7.30;6.00;;;16.90;1.00;;;;;;4972250;28;21006;-74
2023/06/12 03:58:28;;;;;;;6.90;6.07;;;16.90;1.00;;;;;;4975214;28;20456;-74
2023/06/12 04:00:56;;;;;;;8.30;5.73;;;16.90;1.00;;;;;;4969455;28;20566;-74
2023/06/12 04:03:24;;;;;;;8.90;5.73;;;16.80;1.00;;;;;;4963093;28;20578;-76
2023/06/12 04:05:52;;;;;;;5.47;4.97;;;16.90;1.00;;;;;;4969312;28;20899;-75
2023/06/12 04:08:20;;;;;;;6.43;5.67;;;16.80;1.00;;;;;;4970418;28;20555;-74
2023/06/12 04:10:47;;;;;;;6.07;5.60;;;16.80;1.00;;;;;;4973078;28;20506;-74
2023/06/12 04:13:14;;;;;;;7.57;6.13;;;16.80;1.00;;;;;;4971517;28;20551;-74
2023/06/12 04:15:42;;;;;;;8.00;6.57;;;16.80;1.00;;;;;;4973918;28;20472;-75
2023/06/12 04:18:09;;;;;;;6.37;5.77;;;16.90;1.00;;;;;;4970679;28;20837;-74
2023/06/12 04:20:38;;;;;;;6.67;6.00;;;16.90;1.00;;;;;;4970413;28;20439;-74
2023/06/12 04:23:11;;;;;;;9.40;6.60;;;17.00;1.00;;;;;;4969477;28;20457;-74
2023/06/12 04:25:38;;;;;;;5.83;5.23;;;17.00;1.00;;;;;;4970017;28;20468;-74
2023/06/12 04:28:07;;;;;;;7.13;6.43;;;17.00;1.00;;;;;;4967234;28;20465;-74
2023/06/12 04:30:35;;;;;;;7.03;6.40;;;17.10;1.00;;;;;;4966619;28;21491;-74
2023/06/12 04:33:03;;;;;;;11.53;6.60;;;17.10;1.00;;;;;;4967223;28;20494;-75
2023/06/12 04:35:33;;;;;;;7.30;6.50;;;17.20;1.00;;;;;;4967940;28;21054;-75
2023/06/12 04:38:00;;;;;;;6.13;5.63;;;17.20;1.00;;;;;;4967928;28;20514;-75
2023/06/12 04:40:28;;;;;;;9.20;6.03;;;17.30;1.00;;;;;;4968309;28;20491;-76
2023/06/12 04:42:58;;;;;;;8.33;6.20;;;17.30;1.00;;;;;;4970829;28;20990;-75
2023/06/12 04:45:25;;;;;;;6.33;5.67;;;17.40;1.00;;;;;;4966970;28;20467;-76
2023/06/12 04:47:52;;;;;;;10.60;8.20;;;17.40;1.00;;;;;;4967710;28;20488;-75
2023/06/12 04:50:19;;;;;;;38.20;8.20;;;17.40;1.00;;;;;;4968768;28;20486;-74
2023/06/12 04:52:48;;;;;;;23.37;8.60;;;17.50;1.00;;;;;;4966800;28;20452;-75
2023/06/12 04:55:20;;;;;;;10.40;5.97;;;17.60;1.00;;;;;;4965827;28;20876;-76
2023/06/12 04:57:52;;;;;;;11.37;6.00;;;17.70;1.00;;;;;;4969654;28;20436;-75
2023/06/12 05:00:20;;;;;;;7.77;5.30;;;17.70;1.00;;;;;;4965852;28;20496;-75
2023/06/12 05:02:47;;;;;;;8.23;5.87;;;17.70;1.00;;;;;;4966017;28;20532;-75
2023/06/12 05:05:14;;;;;;;5.83;5.00;;;17.80;1.00;;;;;;4965387;28;20472;-75
2023/06/12 05:07:41;;;;;;;5.53;5.03;;;18.00;1.00;;;;;;4970139;28;20452;-75
2023/06/12 05:10:08;;;;;;;8.17;5.20;;;18.10;1.00;;;;;;4967960;28;20555;-76
2023/06/12 05:12:35;;;;;;;6.83;5.10;;;18.20;1.00;;;;;;4967945;28;21043;-74
2023/06/12 05:15:05;;;;;;;8.47;6.70;;;18.20;1.00;;;;;;4965645;28;20461;-74
2023/06/12 05:17:33;;;;;;;5.73;5.10;;;18.30;1.00;;;;;;4967691;28;20464;-74
2023/06/12 05:20:00;;;;;;;4.97;4.57;;;18.40;1.00;;;;;;4960638;28;20961;-75
2023/06/12 05:22:27;;;;;;;6.17;5.60;;;18.50;1.00;;;;;;4965984;28;20487;-74
2023/06/12 05:24:54;;;;;;;4.87;4.47;;;18.50;1.00;;;;;;4968182;28;20501;-74
2023/06/12 05:27:21;;;;;;;8.00;7.30;;;18.50;1.00;;;;;;4968225;28;20537;-74
2023/06/12 05:29:48;;;;;;;5.90;5.30;;;18.60;1.00;;;;;;4964714;28;20848;-75
2023/06/12 05:32:16;;;;;;;8.50;5.37;;;18.70;1.00;;;;;;4963673;28;20473;-73
2023/06/12 05:34:43;;;;;;;5.70;5.07;;;18.80;1.00;;;;;;4964437;28;20490;-73
2023/06/12 05:37:10;;;;;;;5.40;4.40;;;18.90;1.00;;;;;;4966337;28;20573;-73
2023/06/12 05:39:37;;;;;;;6.23;5.30;;;19.10;1.00;;;;;;4966630;28;20488;-75
2023/06/12 05:42:04;;;;;;;7.43;5.80;;;19.20;1.00;;;;;;4964548;28;20459;-74
2023/06/12 05:44:32;;;;;;;9.03;7.00;;;19.30;1.00;;;;;;4967705;28;20850;-73
2023/06/12 05:46:59;;;;;;;5.33;4.83;;;19.50;1.00;;;;;;4965035;28;20443;-74
2023/06/12 05:49:27;;;;;;;5.93;5.03;;;19.60;1.00;;;;;;4964376;28;20507;-74
2023/06/12 05:51:54;;;;;;;5.50;4.73;;;19.70;1.00;;;;;;4962874;28;20592;-75
2023/06/12 05:54:21;;;;;;;5.40;4.90;;;19.70;1.00;;;;;;4965435;28;21869;-76
2023/06/12 05:56:48;;;;;;;5.70;4.80;;;19.80;1.00;;;;;;4966752;28;20477;-74
2023/06/12 05:59:15;;;;;;;11.33;5.80;;;19.90;1.00;;;;;;4967212;28;20486;-74
2023/06/12 06:01:43;;;;;;;5.30;4.80;;;20.00;1.00;;;;;;4963603;28;20494;-74
2023/06/12 06:04:11;;;;;;;5.20;4.63;;;19.90;1.00;;;;;;4959706;28;20463;-76
2023/06/12 06:06:40;;;;;;;5.17;4.70;;;19.90;1.00;;;;;;4960522;28;20466;-75
2023/06/12 06:09:07;;;;;;;8.77;6.30;;;19.90;1.00;;;;;;4965410;28;20474;-75
2023/06/12 06:11:34;;;;;;;9.33;5.67;;;20.00;1.00;;;;;;4966688;28;20956;-75
2023/06/12 06:14:03;;;;;;;5.90;5.30;;;20.10;1.00;;;;;;4965063;28;20463;-74
2023/06/12 06:16:29;;;;;;;7.40;5.90;;;20.10;1.00;;;;;;4964064;28;20480;-74
2023/06/12 06:18:56;;;;;;;6.63;5.60;;;20.20;1.00;;;;;;4960097;28;20534;-74
2023/06/12 06:21:23;;;;;;;20.77;18.70;;;20.10;1.00;;;;;;4965189;28;21350;-74
2023/06/12 06:23:52;;;;;;;5.63;5.13;;;20.20;1.00;;;;;;4961222;28;20581;-75
2023/06/12 06:26:19;;;;;;;6.03;5.33;;;20.40;1.00;;;;;;4967875;28;20576;-75
2023/06/12 06:28:45;;;;;;;6.20;5.60;;;20.50;1.00;;;;;;4962308;28;20500;-74
2023/06/12 06:31:13;;;;;;;8.57;5.37;;;20.70;1.00;;;;;;4963164;28;20507;-75
2023/06/12 06:33:40;;;;;;;7.20;6.57;;;20.90;1.00;;;;;;4967346;28;20470;-75
2023/06/12 06:36:07;;;;;;;8.77;6.10;;;21.00;1.00;;;;;;4967569;28;20555;-76
2023/06/12 06:38:34;;;;;;;10.20;6.60;;;21.10;1.00;;;;;;4968959;28;20907;-75
2023/06/12 06:41:03;;;;;;;9.00;7.27;;;21.10;1.00;;;;;;4966269;28;20488;-75
2023/06/12 06:43:30;;;;;;;6.17;5.67;;;21.20;1.00;;;;;;4969297;28;20499;-74
2023/06/12 06:45:57;;;;;;;9.47;8.57;;;21.20;1.00;;;;;;4969779;28;20551;-74
2023/06/12 06:48:24;;;;;;;8.10;7.20;;;21.20;1.00;;;;;;4966574;28;21060;-74
2023/06/12 06:50:51;;;;;;;9.63;7.00;;;21.30;1.00;;;;;;4966366;28;20563;-74
2023/06/12 06:53:17;;;;;;;6.43;5.90;;;21.40;1.00;;;;;;4966616;28;20631;-75
2023/06/12 06:55:44;;;;;;;7.73;7.03;;;21.50;1.00;;;;;;4962420;28;20561;-75
2023/06/12 06:58:13;;;;;;;7.77;7.07;;;21.60;1.00;;;;;;4966818;28;20472;-77
2023/06/12 07:00:40;;;;;;;8.10;7.40;;;21.60;1.00;;;;;;4965166;28;20530;-76
2023/06/12 07:03:08;;;;;;;10.17;6.37;;;21.70;1.00;;;;;;4958483;28;21241;-76
2023/06/12 07:05:35;;;;;;;8.80;5.63;;;21.80;1.00;;;;;;4964441;28;21057;-76
2023/06/12 07:08:02;;;;;;;8.53;6.47;;;21.80;1.00;;;;;;4962551;28;20479;-75
2023/06/12 07:10:28;;;;;;;8.30;7.50;;;22.00;1.00;;;;;;4966109;28;20626;-74
2023/06/12 07:12:57;;;;;;;7.13;6.43;;;22.10;1.00;;;;;;4962843;28;20464;-75
2023/06/12 07:15:26;;;;;;;8.43;7.63;;;22.20;1.00;;;;;;4961471;28;20555;-75
2023/06/12 07:17:53;;;;;;;8.80;7.07;;;22.40;1.00;;;;;;4962456;28;20477;-75
2023/06/12 07:20:20;;;;;;;6.50;5.90;;;22.70;1.00;;;;;;4963268;28;20453;-76
2023/06/12 07:22:47;;;;;;;10.07;7.33;;;22.70;1.00;;;;;;4961453;28;20586;-74
2023/06/12 07:25:14;;;;;;;7.67;5.67;;;22.70;1.00;;;;;;4961519;28;20578;-73
2023/06/12 07:27:41;;;;;;;5.03;4.47;;;22.70;1.00;;;;;;4963545;28;20880;-74
2023/06/12 07:30:09;;;;;;;10.40;6.40;;;22.70;1.00;;;;;;4969991;28;20526;-74
2023/06/12 07:32:38;;;;;;;7.77;6.60;;;22.70;1.00;;;;;;4963174;28;20464;-75
2023/06/12 07:35:05;;;;;;;7.33;5.27;;;22.80;1.00;;;;;;4966215;28;20465;-75
2023/06/12 07:37:35;;;;;;;12.00;9.80;;;22.80;1.00;;;;;;4967815;28;20479;-75
2023/06/12 07:40:05;;;;;;;5.93;5.43;;;22.70;1.00;;;;;;4965064;28;20479;-75
2023/06/12 07:42:34;;;;;;;9.03;5.77;;;22.80;1.00;;;;;;4967655;28;20462;-76
2023/06/12 07:45:01;;;;;;;10.40;6.90;;;22.70;1.00;;;;;;4967541;28;20463;-74
2023/06/12 07:47:28;;;;;;;6.33;5.73;;;23.00;1.00;;;;;;4965400;28;20587;-75
2023/06/12 07:49:57;;;;;;;6.00;4.83;;;23.10;1.00;;;;;;4966514;28;20471;-74
2023/06/12 07:52:24;;;;;;;6.27;5.67;;;23.20;1.00;;;;;;4965555;28;20555;-77
2023/06/12 07:54:51;;;;;;;6.90;5.57;;;23.40;1.00;;;;;;4968001;28;20831;-76
2023/06/12 07:57:18;;;;;;;8.83;5.30;;;23.60;1.00;;;;;;4968690;28;20565;-75
2023/06/12 07:59:45;;;;;;;5.97;4.87;;;23.80;1.00;;;;;;4967568;28;20511;-75
2023/06/12 08:02:12;;;;;;;5.47;5.00;;;23.90;1.00;;;;;;4966564;28;20575;-75
2023/06/12 08:04:40;;;;;;;7.43;5.67;;;23.80;1.00;;;;;;4964747;28;20497;-74
2023/06/12 08:07:11;;;;;;;11.40;6.10;;;23.90;1.00;;;;;;4965271;28;20972;-76
2023/06/12 08:09:39;;;;;;;5.73;5.03;;;24.20;1.00;;;;;;4966584;28;20454;-76
2023/06/12 08:12:07;;;;;;;5.77;4.97;;;24.30;1.00;;;;;;4966681;28;20484;-74
2023/06/12 08:14:34;;;;;;;5.30;3.90;;;24.50;1.00;;;;;;4968152;28;20477;-75
2023/06/12 08:17:01;;;;;;;5.80;4.40;;;24.60;1.00;;;;;;4968265;28;20466;-75
2023/06/12 08:19:28;;;;;;;4.87;4.47;;;24.60;1.00;;;;;;4965377;28;20533;-74
2023/06/12 08:21:55;;;;;;;4.77;4.37;;;24.70;1.00;;;;;;4966725;28;20489;-75
2023/06/12 08:24:25;;;;;;;7.77;4.27;;;24.80;1.00;;;;;;4965191;28;20474;-75
2023/06/12 08:26:52;;;;;;;5.43;4.60;;;24.80;1.00;;;;;;4964887;28;20555;-74
2023/06/12 08:29:19;;;;;;;4.73;4.33;;;24.90;1.00;;;;;;4962200;28;20954;-75
2023/06/12 08:31:46;;;;;;;9.70;4.90;;;25.00;1.00;;;;;;4966188;28;20478;-75
2023/06/12 08:34:13;;;;;;;5.07;4.40;;;25.20;1.00;;;;;;4964493;28;20472;-74
2023/06/12 08:36:40;;;;;;;5.10;4.60;;;25.50;1.00;;;;;;4961693;28;20563;-75
2023/06/12 08:39:07;;;;;;;6.30;4.97;;;25.50;1.00;;;;;;4965991;28;20477;-74
2023/06/12 08:41:38;;;;;;;6.40;4.47;;;25.70;1.00;;;;;;4964347;28;20684;-74
2023/06/12 08:44:06;;;;;;;5.53;4.80;;;25.90;1.00;;;;;;4966904;28;20551;-75
2023/06/12 08:46:34;;;;;;;5.70;4.40;;;26.00;1.00;;;;;;4967132;28;20500;-74
2023/06/12 08:49:01;;;;;;;4.50;4.10;;;25.90;1.00;;;;;;4963425;28;22147;-74
2023/06/12 08:51:30;;;;;;;6.20;4.80;;;25.70;1.00;;;;;;4966208;28;20488;-74
2023/06/12 08:53:59;;;;;;;5.73;4.97;;;25.70;1.00;;;;;;4963491;28;20547;-74
2023/06/12 08:56:27;;;;;;;5.33;4.93;;;25.90;1.00;;;;;;4968083;28;20532;-74
2023/06/12 08:58:57;;;;;;;5.60;5.00;;;26.10;1.00;;;;;;4964248;28;20844;-75
2023/06/12 09:01:28;;;;;;;9.43;5.80;;;26.00;1.00;;;;;;4964386;28;20476;-75
2023/06/12 09:04:00;;;;;;;5.10;4.63;;;26.30;1.00;;;;;;4967014;28;20565;-76
2023/06/12 09:06:29;;;;;;;5.13;4.63;;;26.40;1.00;;;;;;4968236;28;20573;-75
2023/06/12 09:08:56;;;;;;;7.83;5.00;;;26.60;1.00;;;;;;4964945;28;20635;-75
2023/06/12 09:11:23;;;;;;;12.80;11.80;;;26.80;1.00;;;;;;4967486;28;20541;-75
2023/06/12 09:13:52;;;;;;;6.30;5.80;;;27.10;1.00;;;;;;4966393;28;20869;-75
2023/06/12 09:16:21;;;;;;;6.80;5.27;;;27.20;1.00;;;;;;4964896;28;21053;-75
2023/06/12 09:18:51;;;;;;;6.07;4.50;;;26.60;1.00;;;;;;4966841;28;20555;-75
2023/06/12 09:21:19;;;;;;;6.10;5.50;;;26.20;1.00;;;;;;4963659;28;20474;-75
2023/06/12 09:23:47;;;;;;;5.27;4.80;;;26.10;1.00;;;;;;4965607;28;21344;-74
2023/06/12 09:26:15;;;;;;;5.20;4.70;;;26.50;1.00;;;;;;4965223;28;20491;-76
2023/06/12 09:28:43;;;;;;;5.03;4.60;;;26.90;1.00;;;;;;4965870;28;20872;-74
2023/06/12 09:31:10;;;;;;;8.13;5.10;;;27.20;1.00;;;;;;4965776;28;21400;-76
2023/06/12 09:33:40;;;;;;;6.60;5.80;;;27.30;1.00;;;;;;4968329;28;20550;-76
2023/06/12 09:36:08;;;;;;;5.47;4.90;;;27.30;1.00;;;;;;4966317;28;20886;-75
2023/06/12 09:38:36;;;;;;;5.57;4.87;;;27.40;1.00;;;;;;4961348;28;20470;-75
2023/06/12 09:41:04;;;;;;;6.53;5.40;;;27.60;1.00;;;;;;4965260;28;20466;-73
2023/06/12 09:43:32;;;;;;;7.93;5.57;;;27.90;1.00;;;;;;4964710;28;20552;-74
2023/06/12 09:46:02;;;;;;;10.73;5.47;;;29.00;1.00;;;;;;4967748;28;20467;-74
2023/06/12 09:48:35;;;;;;;6.47;5.07;;;30.40;1.00;;;;;;4965427;28;20496;-73
2023/06/12 09:51:06;;;;;;;6.37;4.97;;;31.60;1.00;;;;;;4963583;28;20453;-75
2023/06/12 09:53:37;;;;;;;6.03;5.00;;;32.40;1.00;;;;;;4964057;28;20944;-71
2023/06/12 09:56:06;;;;;;;5.20;4.80;;;33.50;1.00;;;;;;4964128;28;20463;-72
2023/06/12 09:58:37;;;;;;;8.20;4.83;;;33.00;1.00;;;;;;4967683;28;20468;-71
2023/06/12 10:01:06;;;;;;;6.37;5.87;;;31.80;1.00;;;;;;4964485;28;20589;-71
2023/06/12 10:03:37;;;;;;;5.70;5.20;;;30.90;1.00;;;;;;4964116;28;20528;-71
2023/06/12 10:06:07;;;;;;;5.80;5.30;;;30.10;1.00;;;;;;4961730;28;22341;-71
2023/06/12 10:08:35;;;;;;;6.00;5.47;;;30.10;1.00;;;;;;4966546;28;20457;-71
2023/06/12 10:11:03;;;;;;;7.10;5.57;;;28.90;1.00;;;;;;4963207;28;20455;-70
2023/06/12 10:13:32;;;;;;;6.77;5.30;;;28.80;1.00;;;;;;4964523;28;20556;-71
2023/06/12 10:15:59;;;;;;;6.23;4.97;;;30.70;1.00;;;;;;4962121;28;20566;-71
2023/06/12 10:18:28;;;;;;;5.60;5.10;;;31.60;1.00;;;;;;4966270;28;20562;-72
2023/06/12 10:20:55;;;;;;;6.70;6.03;;;31.60;1.00;;;;;;4965259;28;21970;-72
2023/06/12 10:23:25;;;;;;;5.83;5.20;;;32.00;1.00;;;;;;4965040;28;20939;-71
2023/06/12 10:25:54;;;;;;;8.17;6.60;;;32.80;1.00;;;;;;4962701;28;20618;-71
2023/06/12 10:28:22;;;;;;;8.37;5.27;;;32.10;1.00;;;;;;4964678;28;20460;-73
2023/06/12 10:31:15;;;;;;;6.47;5.87;;;31.10;1.00;;;;;;4965678;28;20891;-71
2023/06/12 10:34:05;;;;;;;5.80;5.20;;;30.30;1.00;;;;;;4965757;28;20494;-72
2023/06/12 10:36:41;;;;;;;6.50;6.00;;;29.50;1.00;;;;;;4966502;28;20548;-70
2023/06/12 10:39:16;;;;;;;7.60;5.60;;;28.80;1.00;;;;;;4968148;28;20543;-71
2023/06/12 10:41:57;;;;;;;5.50;5.00;;;28.30;1.00;;;;;;4964303;28;20505;-73
2023/06/12 10:44:41;;;;;;;5.03;4.50;;;28.40;1.00;;;;;;4969466;28;20494;-72
2023/06/12 10:47:19;;;;;;;8.03;5.73;;;29.60;1.00;;;;;;4967931;28;20533;-72
2023/06/12 10:50:00;;;;;;;9.23;6.43;;;30.40;1.00;;;;;;4967220;28;20469;-73
2023/06/12 10:52:27;;;;;;;6.53;5.90;;;30.10;1.00;;;;;;4966823;28;20585;-71
2023/06/12 10:55:25;;;;;;;6.67;6.03;;;29.40;1.00;;;;;;4962918;28;20975;-72
2023/06/12 10:57:52;;;;;;;4.77;4.47;;;28.70;1.00;;;;;;4967498;28;21065;-71
2023/06/12 11:00:22;;;;;;;5.93;5.43;;;28.30;1.00;;;;;;4964600;28;20557;-73
2023/06/12 11:02:58;;;;;;;6.23;5.50;;;28.00;1.00;;;;;;4963118;28;20482;-71
2023/06/12 11:05:26;;;;;;;6.23;5.73;;;27.70;1.00;;;;;;4970827;28;20838;-71
2023/06/12 11:07:56;;;;;;;6.63;5.80;;;27.40;1.00;;;;;;4968501;28;20926;-72
2023/06/12 11:10:24;;;;;;;5.60;5.20;;;28.30;1.00;;;;;;4967845;28;20553;-72
2023/06/12 11:12:52;;;;;;;5.53;4.87;;;30.60;1.00;;;;;;4966871;28;20471;-72
2023/06/12 11:15:19;;;;;;;6.30;5.70;;;32.90;1.00;;;;;;4965569;28;20464;-73
2023/06/12 11:17:46;;;;;;;6.37;5.87;;;35.10;1.00;;;;;;4966756;28;20479;-73
2023/06/12 11:20:16;;;;;;;5.80;5.40;;;35.70;1.00;;;;;;4967774;28;20469;-72
2023/06/12 11:22:43;;;;;;;13.40;12.30;;;34.80;1.00;;;;;;4964526;28;21053;-71
2023/06/12 11:25:10;;;;;;;8.40;7.60;;;35.40;1.00;;;;;;4962342;28;20482;-71
2023/06/12 11:27:38;;;;;;;6.77;6.17;;;34.60;1.00;;;;;;4967254;28;20507;-71
2023/06/12 11:30:09;;;;;;;5.93;5.53;;;34.90;1.00;;;;;;4964310;28;21797;-71
2023/06/12 11:32:37;;;;;;;10.53;6.57;;;34.30;1.00;;;;;;4964668;28;20562;-72
2023/06/12 11:35:05;;;;;;;6.03;5.53;;;35.30;1.00;;;;;;4965163;28;20463;-72
2023/06/12 11:37:32;;;;;;;5.80;5.13;;;36.70;1.00;;;;;;4968941;28;20474;-71
2023/06/12 11:40:07;;;;;;;5.97;5.50;;;36.70;1.00;;;;;;4965269;28;20478;-71
2023/06/12 11:42:34;;;;;;;9.50;6.37;;;36.00;1.00;;;;;;4970011;28;20459;-71
2023/06/12 11:45:03;;;;;;;6.37;5.77;;;35.50;1.00;;;;;;4966474;28;20457;-71
2023/06/12 11:47:30;;;;;;;5.57;5.07;;;35.90;1.00;;;;;;4966578;28;20926;-72
2023/06/12 11:49:57;;;;;;;5.90;5.40;;;36.30;1.00;;;;;;4964900;28;20669;-70
2023/06/12 11:52:25;;;;;;;5.30;4.90;;;35.60;1.00;;;;;;4968400;28;20952;-72
2023/06/12 11:55:03;;;;;;;6.73;5.83;;;33.80;1.00;;;;;;4968957;28;20843;-71
2023/06/12 11:57:31;;;;;;;7.90;5.57;;;32.30;1.00;;;;;;4971373;28;20829;-71
2023/06/12 11:59:58;;;;;;;6.80;4.87;;;31.40;1.00;;;;;;4966607;28;20562;-71
2023/06/12 12:02:39;;;;;;;6.30;5.70;;;31.30;1.00;;;;;;4968130;28;20523;-71
2023/06/12 12:05:09;;;;;;;7.30;6.47;;;32.50;1.00;;;;;;4967994;28;21054;-70
2023/06/12 12:07:38;;;;;;;5.50;5.20;;;32.30;1.00;;;;;;4965242;28;20473;-71
2023/06/12 12:10:07;;;;;;;5.40;5.00;;;31.40;1.00;;;;;;4966035;28;20471;-70
2023/06/12 12:12:58;;;;;;;6.07;5.47;;;30.80;1.00;;;;;;4972136;28;20980;-73
2023/06/12 12:15:25;;;;;;;5.50;5.10;;;32.20;1.00;;;;;;4966244;28;21001;-71
2023/06/12 12:17:54;;;;;;;5.93;5.43;;;33.70;1.00;;;;;;4969167;28;20538;-71
2023/06/12 12:20:22;;;;;;;6.20;5.60;;;35.30;1.00;;;;;;4968794;28;20475;-72
2023/06/12 12:22:51;;;;;;;5.10;4.70;;;36.70;1.00;;;;;;4968047;28;20468;-71
2023/06/12 12:25:21;;;;;;;5.83;5.40;;;37.60;1.00;;;;;;4969086;28;20463;-71
2023/06/12 12:27:49;;;;;;;5.70;5.20;;;38.60;1.00;;;;;;4967694;28;20468;-73
2023/06/12 12:30:17;;;;;;;5.60;4.77;;;38.90;1.00;;;;;;4964514;28;20499;-72
2023/06/12 12:32:45;;;;;;;5.40;4.90;;;39.70;1.00;;;;;;4963671;28;20500;-72
2023/06/12 12:35:14;;;;;;;5.70;4.63;;;39.10;1.00;;;;;;4967654;28;20502;-71
2023/06/12 12:37:51;;;;;;;5.30;4.80;;;36.10;1.00;;;;;;4966974;28;20475;-77
2023/06/12 12:40:19;;;;;;;5.90;4.70;;;34.20;1.00;;;;;;4967325;28;20556;-71
2023/06/12 12:42:47;;;;;;;6.10;4.57;;;34.80;1.00;;;;;;4969219;28;20559;-73
2023/06/12 12:45:15;;;;;;;5.73;5.23;;;35.00;1.00;;;;;;4967805;28;20893;-72
2023/06/12 12:47:47;;;;;;;12.20;6.30;;;35.70;1.00;;;;;;4964266;28;20571;-71
2023/06/12 12:50:17;;;;;;;5.53;5.13;;;36.80;1.00;;;;;;4967721;28;20571;-72
2023/06/12 12:52:45;;;;;;;5.43;5.03;;;37.70;1.00;;;;;;4967980;28;20464;-72
2023/06/12 12:55:12;;;;;;;8.60;4.77;;;38.60;1.00;;;;;;4967586;28;20492;-72
2023/06/12 12:57:42;;;;;;;4.90;4.50;;;39.00;1.00;;;;;;4968355;28;20480;-73
2023/06/12 13:00:11;;;;;;;5.63;4.87;;;38.50;1.00;;;;;;4968035;28;20550;-73
2023/06/12 13:02:39;;;;;;;6.40;5.70;;;38.70;1.00;;;;;;4964112;28;20888;-73
2023/06/12 13:05:08;;;;;;;5.77;5.27;;;38.00;1.00;;;;;;4967773;28;20484;-72
2023/06/12 13:07:38;;;;;;;6.83;5.57;;;37.60;1.00;;;;;;4965393;28;20874;-71